createdAt,value
2023-01-11T00:01:03.693Z,130.30
2023-01-11T00:02:06.607Z,111.30
2023-01-11T00:03:09.653Z,112.50
2023-01-11T00:04:12.583Z,119.70
2023-01-11T00:05:15.549Z,115.90
2023-01-11T00:06:18.484Z,115.70
2023-01-11T00:07:21.763Z,109.20
2023-01-11T00:08:26.739Z,100.80
2023-01-11T00:09:29.797Z,108.50
2023-01-11T00:10:33.652Z,101.70
2023-01-11T00:11:36.467Z,101.80
2023-01-11T00:12:39.295Z,105.40
2023-01-11T00:13:45.259Z,114.60
2023-01-11T00:14:48.144Z,119.70
2023-01-11T00:15:51.043Z,129.00
2023-01-11T00:16:53.856Z,112.20
2023-01-11T00:17:57.805Z,109.60
2023-01-11T00:19:00.683Z,136.90
2023-01-11T00:20:03.829Z,109.70
2023-01-11T00:21:07.457Z,106.70
2023-01-11T00:22:10.260Z,113.50
2023-01-11T00:23:13.132Z,114.90
2023-01-11T00:24:16.390Z,114.10
2023-01-11T00:25:19.322Z,123.00
2023-01-11T00:26:22.176Z,117.20
2023-01-11T00:27:24.952Z,116.80
2023-01-11T00:28:27.720Z,118.00
2023-01-11T00:29:30.540Z,135.70
2023-01-11T00:30:33.677Z,127.60
2023-01-11T00:31:36.548Z,122.00
2023-01-11T00:32:39.429Z,115.20
2023-01-11T00:33:42.498Z,117.00
2023-01-11T00:34:45.289Z,134.70
2023-01-11T00:35:51.335Z,115.00
2023-01-11T00:36:54.133Z,127.50
2023-01-11T00:37:56.986Z,121.00
2023-01-11T00:39:01.257Z,138.60
2023-01-11T00:40:05.158Z,133.70
2023-01-11T00:41:27.728Z,149.80
2023-01-11T00:42:49.298Z,135.00
2023-01-11T00:44:11.407Z,164.90
2023-01-11T00:45:32.973Z,127.20
2023-01-11T00:47:02.677Z,133.90
2023-01-11T00:49:09.792Z,105.80
2023-01-11T00:50:12.625Z,129.40
2023-01-11T00:51:15.454Z,128.80
2023-01-11T00:52:18.223Z,136.20
2023-01-11T00:53:21.191Z,177.30
2023-01-11T00:54:24.312Z,135.90
2023-01-11T00:55:27.724Z,161.20
2023-01-11T00:56:30.548Z,146.10
2023-01-11T00:57:33.336Z,126.20
2023-01-11T00:58:36.250Z,148.10
2023-01-11T00:59:39.644Z,150.70
2023-01-11T01:00:42.572Z,170.60
2023-01-11T01:01:45.640Z,159.10
2023-01-11T01:02:49.440Z,138.80
2023-01-11T01:03:52.516Z,141.30
2023-01-11T01:04:55.414Z,141.50
2023-01-11T01:05:58.300Z,167.90
2023-01-11T01:07:01.134Z,177.30
2023-01-11T01:08:04.044Z,198.30
2023-01-11T01:09:06.961Z,194.20
2023-01-11T01:10:11.428Z,172.30
2023-01-11T01:11:14.331Z,197.50
2023-01-11T01:12:35.854Z,139.50
2023-01-11T01:13:57.315Z,174.80
2023-01-11T01:15:00.552Z,139.80
2023-01-11T01:16:03.515Z,145.10
2023-01-11T01:17:08.593Z,158.60
2023-01-11T01:18:11.413Z,137.90
2023-01-11T01:19:14.767Z,133.60
2023-01-11T01:20:17.659Z,163.10
2023-01-11T01:21:20.503Z,166.80
2023-01-11T01:22:23.271Z,149.60
2023-01-11T01:23:26.046Z,171.20
2023-01-11T01:24:30.952Z,158.60
2023-01-11T01:25:36.808Z,174.10
2023-01-11T01:26:39.659Z,177.70
2023-01-11T01:27:42.705Z,139.20
2023-01-11T01:28:45.730Z,153.90
2023-01-11T01:29:48.588Z,149.80
2023-01-11T01:30:52.035Z,149.70
2023-01-11T01:31:54.864Z,149.60
2023-01-11T01:32:57.659Z,148.60
2023-01-11T01:34:00.472Z,177.60
2023-01-11T01:35:03.475Z,169.60
2023-01-11T01:36:06.645Z,161.10
2023-01-11T01:37:11.376Z,151.10
2023-01-11T01:38:14.408Z,168.00
2023-01-11T01:39:17.269Z,139.30
2023-01-11T01:40:20.210Z,206.50
2023-01-11T01:41:23.104Z,154.80
2023-01-11T01:42:25.998Z,163.60
2023-01-11T01:44:06.330Z,174.70
2023-01-11T01:45:28.988Z,235.50
2023-01-11T01:46:34.385Z,211.40
2023-01-11T01:47:42.965Z,153.60
2023-01-11T01:49:00.328Z,202.20
2023-01-11T01:50:09.635Z,168.30
2023-01-11T01:51:18.910Z,161.20
2023-01-11T01:52:29.019Z,149.20
2023-01-11T01:53:37.413Z,152.00
2023-01-11T01:54:47.231Z,155.40
2023-01-11T01:55:54.828Z,196.10
2023-01-11T01:57:02.215Z,167.30
2023-01-11T01:58:10.198Z,192.90
2023-01-11T01:59:16.455Z,147.10
2023-01-11T02:00:19.904Z,171.70
2023-01-11T02:01:41.493Z,188.10
2023-01-11T02:02:45.399Z,139.40
2023-01-11T02:03:49.674Z,143.80
2023-01-11T02:04:55.729Z,149.70
2023-01-11T02:05:58.589Z,140.80
2023-01-11T02:07:04.692Z,152.40
2023-01-11T02:08:16.733Z,159.70
2023-01-11T02:09:29.924Z,166.20
2023-01-11T02:10:32.940Z,156.80
2023-01-11T02:11:43.298Z,161.20
2023-01-11T02:13:05.842Z,154.40
2023-01-11T02:14:12.832Z,173.40
2023-01-11T02:15:18.211Z,174.70
2023-01-11T02:16:21.544Z,181.90
2023-01-11T02:17:24.868Z,188.80
2023-01-11T02:18:27.682Z,204.80
2023-01-11T02:20:01.340Z,210.40
2023-01-11T02:21:18.962Z,214.70
2023-01-11T02:23:08.066Z,148.50
2023-01-11T02:24:28.988Z,156.00
2023-01-11T02:26:13.135Z,123.70
2023-01-11T02:27:48.195Z,133.40
2023-01-11T02:29:09.481Z,127.10
2023-01-11T02:30:26.847Z,125.60
2023-01-11T02:31:58.987Z,131.60
2023-01-11T02:33:09.412Z,123.30
2023-01-11T02:34:42.019Z,131.80
2023-01-11T02:36:17.682Z,131.60
2023-01-11T02:37:37.497Z,131.00
2023-01-11T02:39:16.587Z,139.40
2023-01-11T02:40:45.868Z,133.10
2023-01-11T02:42:17.476Z,123.20
2023-01-11T02:44:00.296Z,142.40
2023-01-11T02:45:24.918Z,145.70
2023-01-11T02:46:37.940Z,142.60
2023-01-11T02:47:40.804Z,146.90
2023-01-11T02:49:29.803Z,149.40
2023-01-11T02:50:59.225Z,141.50
2023-01-11T02:52:34.350Z,134.40
2023-01-11T02:55:46.036Z,159.40
2023-01-11T02:56:51.772Z,194.40
2023-01-11T02:57:57.746Z,174.90
2023-01-11T02:59:02.339Z,161.20
2023-01-11T03:00:06.642Z,136.90
2023-01-11T03:01:09.742Z,183.50
2023-01-11T03:02:13.147Z,141.50
2023-01-11T03:03:19.248Z,144.70
2023-01-11T03:04:23.214Z,129.50
2023-01-11T03:05:26.115Z,106.60
2023-01-11T03:06:34.279Z,112.50
2023-01-11T03:07:49.875Z,100.90
2023-01-11T03:09:16.302Z,111.10
2023-01-11T03:10:50.225Z,101.00
2023-01-11T03:12:23.799Z,103.70
2023-01-11T03:13:32.673Z,102.40
2023-01-11T03:15:13.479Z,98.60
2023-01-11T03:16:39.760Z,106.20
2023-01-11T03:17:45.639Z,116.90
2023-01-11T03:19:06.675Z,106.40
2023-01-11T03:20:11.651Z,125.90
2023-01-11T03:21:27.568Z,126.90
2023-01-11T03:23:01.764Z,117.30
2023-01-11T03:24:15.651Z,106.60
2023-01-11T03:25:31.066Z,110.20
2023-01-11T03:26:43.351Z,113.60
2023-01-11T03:27:57.203Z,101.70
2023-01-11T03:29:08.660Z,93.80
2023-01-11T03:30:35.169Z,116.10
2023-01-11T03:31:55.459Z,110.70
2023-01-11T03:33:06.908Z,127.40
2023-01-11T03:34:36.043Z,107.00
2023-01-11T03:35:48.279Z,93.30
2023-01-11T03:37:17.275Z,103.50
2023-01-11T03:38:46.159Z,105.50
2023-01-11T03:40:04.240Z,94.80
2023-01-11T03:41:15.729Z,118.70
2023-01-11T03:42:22.555Z,106.90
2023-01-11T03:43:28.217Z,109.40
2023-01-11T03:44:36.208Z,125.20
2023-01-11T03:45:51.487Z,105.00
2023-01-11T03:47:01.482Z,109.60
2023-01-11T03:48:06.964Z,97.80
2023-01-11T03:49:15.781Z,101.50
2023-01-11T03:50:19.432Z,93.30
2023-01-11T03:51:28.113Z,98.30
2023-01-11T03:52:35.630Z,96.00
2023-01-11T03:53:40.423Z,96.20
2023-01-11T03:54:44.556Z,95.20
2023-01-11T03:55:52.241Z,100.00
2023-01-11T03:57:10.421Z,100.70
2023-01-11T03:58:13.426Z,107.80
2023-01-11T03:59:16.453Z,102.80
2023-01-11T04:00:20.952Z,92.30
2023-01-11T04:01:25.241Z,103.60
2023-01-11T04:02:34.845Z,97.60
2023-01-11T04:03:37.869Z,105.50
2023-01-11T04:04:40.727Z,95.90
2023-01-11T04:05:46.977Z,99.40
2023-01-11T04:06:49.983Z,93.20
2023-01-11T04:07:54.174Z,93.20
2023-01-11T04:08:57.025Z,88.90
2023-01-11T04:09:59.931Z,88.10
2023-01-11T04:11:05.918Z,88.00
2023-01-11T04:12:08.836Z,88.10
2023-01-11T04:13:11.765Z,85.00
2023-01-11T04:14:14.630Z,92.60
2023-01-11T04:15:17.428Z,85.80
2023-01-11T04:16:20.290Z,84.70
2023-01-11T04:17:23.400Z,85.70
2023-01-11T04:18:26.654Z,87.90
2023-01-11T04:19:29.480Z,94.90
2023-01-11T04:20:38.914Z,87.80
2023-01-11T04:21:41.715Z,80.50
2023-01-11T04:22:44.584Z,83.80
2023-01-11T04:23:47.478Z,83.10
2023-01-11T04:24:50.252Z,88.30
2023-01-11T04:25:53.478Z,87.90
2023-01-11T04:26:56.318Z,91.30
2023-01-11T04:28:00.114Z,87.80
2023-01-11T04:29:03.098Z,80.60
2023-01-11T04:30:06.575Z,85.60
2023-01-11T04:31:10.040Z,82.00
2023-01-11T04:32:12.886Z,79.80
2023-01-11T04:33:15.680Z,80.00
2023-01-11T04:34:18.522Z,90.30
2023-01-11T04:35:21.331Z,92.70
2023-01-11T04:36:26.011Z,98.20
2023-01-11T04:37:28.818Z,89.70
2023-01-11T04:38:31.644Z,92.40
2023-01-11T04:39:34.478Z,98.60
2023-01-11T04:40:37.322Z,92.00
2023-01-11T04:41:59.006Z,84.90
2023-01-11T04:43:02.480Z,86.80
2023-01-11T04:44:05.329Z,83.40
2023-01-11T04:45:08.677Z,76.40
2023-01-11T04:46:11.561Z,78.10
2023-01-11T04:47:18.336Z,88.80
2023-01-11T04:48:21.191Z,76.90
2023-01-11T04:49:24.053Z,75.10
2023-01-11T04:50:27.642Z,83.00
2023-01-11T04:51:30.639Z,104.20
2023-01-11T04:52:33.871Z,82.40
2023-01-11T04:53:36.879Z,95.50
2023-01-11T04:54:40.053Z,88.30
2023-01-11T04:55:43.670Z,87.10
2023-01-11T04:56:46.530Z,87.90
2023-01-11T04:57:49.424Z,89.50
2023-01-11T04:58:52.318Z,85.10
2023-01-11T04:59:55.225Z,86.60
2023-01-11T05:00:58.347Z,81.70
2023-01-11T05:02:01.171Z,82.50
2023-01-11T05:03:03.982Z,79.30
2023-01-11T05:04:07.196Z,83.30
2023-01-11T05:05:10.601Z,80.20
2023-01-11T05:06:14.490Z,94.80
2023-01-11T05:07:17.411Z,84.20
2023-01-11T05:08:20.279Z,88.40
2023-01-11T05:09:23.322Z,98.90
2023-01-11T05:10:26.180Z,90.90
2023-01-11T05:11:29.055Z,102.10
2023-01-11T05:12:31.927Z,102.90
2023-01-11T05:13:44.436Z,89.20
2023-01-11T05:14:47.353Z,89.70
2023-01-11T05:15:50.615Z,105.90
2023-01-11T05:16:53.528Z,87.40
2023-01-11T05:17:56.348Z,82.70
2023-01-11T05:19:01.782Z,88.20
2023-01-11T05:20:05.656Z,97.70
2023-01-11T05:21:09.983Z,98.50
2023-01-11T05:22:12.972Z,85.00
2023-01-11T05:23:15.876Z,90.60
2023-01-11T05:24:18.813Z,90.60
2023-01-11T05:25:21.674Z,94.10
2023-01-11T05:26:34.812Z,97.30
2023-01-11T05:27:38.060Z,88.00
2023-01-11T05:28:41.360Z,82.00
2023-01-11T05:29:44.378Z,87.10
2023-01-11T05:30:53.526Z,89.20
2023-01-11T05:31:56.445Z,96.70
2023-01-11T05:32:59.291Z,98.50
2023-01-11T05:34:02.393Z,88.80
2023-01-11T05:35:05.640Z,87.40
2023-01-11T05:36:12.874Z,82.30
2023-01-11T05:37:15.958Z,88.50
2023-01-11T05:38:18.891Z,87.50
2023-01-11T05:39:23.321Z,77.60
2023-01-11T05:40:26.225Z,75.20
2023-01-11T05:41:29.073Z,86.00
2023-01-11T05:42:31.909Z,89.00
2023-01-11T05:43:58.710Z,93.10
2023-01-11T05:45:20.362Z,85.10
2023-01-11T05:46:24.057Z,86.10
2023-01-11T05:47:27.429Z,82.60
2023-01-11T05:48:30.273Z,84.00
2023-01-11T05:49:33.112Z,79.10
2023-01-11T05:50:36.575Z,77.40
2023-01-11T05:51:40.405Z,74.20
2023-01-11T05:52:43.257Z,80.60
2023-01-11T05:53:46.161Z,75.50
2023-01-11T05:54:48.956Z,76.10
2023-01-11T05:55:56.678Z,73.90
2023-01-11T05:56:59.560Z,76.20
2023-01-11T05:58:05.545Z,76.50
2023-01-11T05:59:08.488Z,81.00
2023-01-11T06:00:12.689Z,69.00
2023-01-11T06:01:17.020Z,71.50
2023-01-11T06:02:20.017Z,70.70
2023-01-11T06:03:25.522Z,71.80
2023-01-11T06:04:28.379Z,63.10
2023-01-11T06:05:34.562Z,70.20
2023-01-11T06:06:37.667Z,74.70
2023-01-11T06:07:40.645Z,74.40
2023-01-11T06:08:43.508Z,70.10
2023-01-11T06:09:46.366Z,71.60
2023-01-11T06:10:53.648Z,69.70
2023-01-11T06:11:56.515Z,70.20
2023-01-11T06:13:18.441Z,73.10
2023-01-11T06:14:21.337Z,67.20
2023-01-11T06:15:24.300Z,72.00
2023-01-11T06:16:27.714Z,72.30
2023-01-11T06:17:30.605Z,71.20
2023-01-11T06:18:39.084Z,67.60
2023-01-11T06:19:42.568Z,68.30
2023-01-11T06:20:53.100Z,61.90
2023-01-11T06:21:55.995Z,60.40
2023-01-11T06:22:58.829Z,59.10
2023-01-11T06:24:01.767Z,73.70
2023-01-11T06:25:04.955Z,64.30
2023-01-11T06:26:11.067Z,74.50
2023-01-11T06:27:13.907Z,67.70
2023-01-11T06:28:17.333Z,67.70
2023-01-11T06:29:20.251Z,62.80
2023-01-11T06:30:25.904Z,66.10
2023-01-11T06:31:28.775Z,66.40
2023-01-11T06:32:31.651Z,57.20
2023-01-11T06:33:35.955Z,58.80
2023-01-11T06:34:38.840Z,60.30
2023-01-11T06:35:43.404Z,61.70
2023-01-11T06:36:46.249Z,64.30
2023-01-11T06:37:49.078Z,63.00
2023-01-11T06:38:52.721Z,59.60
2023-01-11T06:39:55.550Z,62.70
2023-01-11T06:41:00.569Z,55.80
2023-01-11T06:42:03.429Z,61.10
2023-01-11T06:43:07.517Z,60.10
2023-01-11T06:44:10.493Z,57.50
2023-01-11T06:45:13.406Z,59.10
2023-01-11T06:46:17.470Z,63.10
2023-01-11T06:47:20.473Z,54.50
2023-01-11T06:48:24.061Z,54.60
2023-01-11T06:49:27.365Z,61.30
2023-01-11T06:50:30.208Z,57.90
2023-01-11T06:51:33.106Z,58.60
2023-01-11T06:52:35.975Z,57.00
2023-01-11T06:53:40.249Z,48.20
2023-01-11T06:54:43.177Z,54.40
2023-01-11T06:55:51.055Z,59.60
2023-01-11T06:56:53.960Z,54.80
2023-01-11T06:57:57.238Z,53.40
2023-01-11T06:59:00.115Z,53.30
2023-01-11T07:00:03.790Z,53.30
2023-01-11T07:01:07.418Z,52.90
2023-01-11T07:02:10.643Z,53.70
2023-01-11T07:03:13.607Z,51.70
2023-01-11T07:04:18.715Z,51.00
2023-01-11T07:05:21.647Z,56.60
2023-01-11T07:06:24.914Z,51.40
2023-01-11T07:07:28.170Z,55.50
2023-01-11T07:08:31.108Z,54.80
2023-01-11T07:09:33.964Z,48.80
2023-01-11T07:10:37.131Z,50.60
2023-01-11T07:11:40.081Z,48.40
2023-01-11T07:12:43.630Z,53.20
2023-01-11T07:13:46.484Z,52.40
2023-01-11T07:14:49.848Z,51.80
2023-01-11T07:15:54.406Z,53.40
2023-01-11T07:16:57.412Z,52.30
2023-01-11T07:18:00.910Z,52.90
2023-01-11T07:19:03.915Z,51.10
2023-01-11T07:20:07.690Z,47.90
2023-01-11T07:21:10.631Z,55.70
2023-01-11T07:22:13.572Z,47.30
2023-01-11T07:23:16.464Z,46.30
2023-01-11T07:24:20.568Z,46.50
2023-01-11T07:25:23.519Z,50.70
2023-01-11T07:26:28.386Z,51.80
2023-01-11T07:27:31.729Z,49.90
2023-01-11T07:28:34.936Z,52.30
2023-01-11T07:29:37.933Z,46.70
2023-01-11T07:30:56.564Z,42.60
2023-01-11T07:32:00.159Z,30.80
2023-01-11T07:33:04.381Z,44.40
2023-01-11T07:34:07.382Z,45.90
2023-01-11T07:35:10.259Z,46.20
2023-01-11T07:36:13.139Z,43.20
2023-01-11T07:37:28.299Z,43.00
2023-01-11T07:38:32.680Z,45.30
2023-01-11T07:39:43.427Z,41.70
2023-01-11T07:40:47.077Z,44.50
2023-01-11T07:42:08.540Z,49.00
2023-01-11T07:43:18.486Z,41.30
2023-01-11T07:44:21.571Z,39.50
2023-01-11T07:45:31.439Z,44.60
2023-01-11T07:46:40.460Z,44.10
2023-01-11T07:47:43.766Z,42.10
2023-01-11T07:48:46.953Z,42.30
2023-01-11T07:49:49.825Z,38.80
2023-01-11T07:50:53.737Z,39.80
2023-01-11T07:51:56.641Z,44.50
2023-01-11T07:52:59.616Z,39.60
2023-01-11T07:54:04.105Z,37.10
2023-01-11T07:55:07.251Z,37.30
2023-01-11T07:56:10.193Z,40.00
2023-01-11T07:57:13.073Z,38.10
2023-01-11T07:58:16.356Z,38.20
2023-01-11T07:59:19.398Z,41.50
2023-01-11T08:00:22.877Z,44.50
2023-01-11T08:01:25.825Z,42.70
2023-01-11T08:02:28.835Z,41.90
2023-01-11T08:03:32.087Z,37.70
2023-01-11T08:04:35.079Z,44.40
2023-01-11T08:05:38.059Z,41.80
2023-01-11T08:06:42.087Z,44.10
2023-01-11T08:07:45.541Z,44.10
2023-01-11T08:08:48.397Z,47.40
2023-01-11T08:09:51.253Z,43.10
2023-01-11T08:11:12.570Z,49.00
2023-01-11T08:12:34.608Z,46.60
2023-01-11T08:13:56.417Z,42.80
2023-01-11T08:14:59.348Z,44.50
2023-01-11T08:16:02.331Z,48.20
2023-01-11T08:17:11.189Z,44.60
2023-01-11T08:18:14.255Z,33.20
2023-01-11T08:19:17.212Z,41.90
2023-01-11T08:20:21.068Z,40.30
2023-01-11T08:21:23.961Z,44.70
2023-01-11T08:22:27.143Z,42.20
2023-01-11T08:23:31.224Z,43.40
2023-01-11T08:24:35.016Z,40.00
2023-01-11T08:25:38.366Z,44.70
2023-01-11T08:26:41.333Z,45.10
2023-01-11T08:27:45.069Z,41.50
2023-01-11T08:28:48.005Z,45.00
2023-01-11T08:29:50.864Z,35.30
2023-01-11T08:30:53.960Z,40.20
2023-01-11T08:31:57.362Z,41.60
2023-01-11T08:33:05.037Z,42.80
2023-01-11T08:34:08.387Z,38.90
2023-01-11T08:35:13.004Z,42.80
2023-01-11T08:36:15.903Z,43.00
2023-01-11T08:37:18.972Z,45.80
2023-01-11T08:38:21.879Z,50.10
2023-01-11T08:39:25.049Z,49.20
2023-01-11T08:40:28.008Z,48.40
2023-01-11T08:41:32.826Z,48.90
2023-01-11T08:42:35.776Z,47.50
2023-01-11T08:43:39.573Z,44.00
2023-01-11T08:44:42.445Z,44.90
2023-01-11T08:45:45.410Z,45.60
2023-01-11T08:46:48.324Z,44.10
2023-01-11T08:47:52.123Z,42.20
2023-01-11T08:48:55.316Z,45.50
2023-01-11T08:49:58.350Z,39.80
2023-01-11T08:51:01.300Z,40.70
2023-01-11T08:52:04.396Z,45.40
2023-01-11T08:53:07.436Z,43.10
2023-01-11T08:54:13.337Z,38.20
2023-01-11T08:55:16.312Z,40.20
2023-01-11T08:56:19.224Z,39.00
2023-01-11T08:57:22.067Z,42.50
2023-01-11T08:58:25.670Z,42.20
2023-01-11T08:59:28.516Z,43.20
2023-01-11T09:00:31.356Z,53.70
2023-01-11T09:01:34.281Z,39.60
2023-01-11T09:02:37.204Z,38.40
2023-01-11T09:03:40.054Z,38.50
2023-01-11T09:04:42.942Z,38.10
2023-01-11T09:05:45.798Z,38.90
2023-01-11T09:06:48.707Z,40.40
2023-01-11T09:07:53.999Z,39.90
2023-01-11T09:08:56.858Z,33.50
2023-01-11T09:09:59.718Z,36.00
2023-01-11T09:11:02.625Z,37.60
2023-01-11T09:12:06.040Z,37.10
2023-01-11T09:13:08.970Z,40.30
2023-01-11T09:14:12.268Z,37.80
2023-01-11T09:15:15.256Z,36.30
2023-01-11T09:16:18.108Z,33.60
2023-01-11T09:17:21.016Z,34.00
2023-01-11T09:18:26.861Z,35.90
2023-01-11T09:19:29.766Z,39.00
2023-01-11T09:20:32.843Z,32.90
2023-01-11T09:21:35.745Z,31.40
2023-01-11T09:22:39.226Z,37.30
2023-01-11T09:23:45.049Z,32.20
2023-01-11T09:24:47.906Z,31.00
2023-01-11T09:25:50.883Z,30.10
2023-01-11T09:26:54.118Z,29.20
2023-01-11T09:27:57.249Z,26.40
2023-01-11T09:29:00.221Z,28.70
2023-01-11T09:30:04.345Z,26.20
2023-01-11T09:31:07.842Z,27.80
2023-01-11T09:32:10.871Z,27.80
2023-01-11T09:33:13.906Z,27.90
2023-01-11T09:34:16.928Z,29.50
2023-01-11T09:35:20.028Z,28.00
2023-01-11T09:36:25.161Z,28.20
2023-01-11T09:37:28.130Z,26.90
2023-01-11T09:38:33.337Z,30.80
2023-01-11T09:39:37.224Z,26.00
2023-01-11T09:40:57.332Z,26.50
2023-01-11T09:42:07.067Z,30.30
2023-01-11T09:43:15.100Z,26.10
2023-01-11T09:44:23.407Z,28.80
2023-01-11T09:45:30.554Z,26.00
2023-01-11T09:46:34.659Z,29.20
2023-01-11T09:48:12.777Z,27.60
2023-01-11T09:49:20.771Z,26.30
2023-01-11T09:50:28.837Z,26.70
2023-01-11T09:51:36.249Z,28.90
2023-01-11T09:52:43.020Z,26.60
2023-01-11T09:53:50.283Z,27.50
2023-01-11T09:54:53.382Z,22.90
2023-01-11T09:55:59.755Z,25.30
2023-01-11T09:57:24.023Z,25.20
2023-01-11T09:58:42.920Z,24.40
2023-01-11T09:59:57.022Z,28.10
2023-01-11T10:01:18.177Z,29.20
2023-01-11T10:03:04.154Z,27.60
2023-01-11T10:04:33.228Z,22.70
2023-01-11T10:05:51.540Z,25.70
2023-01-11T10:07:03.758Z,29.20
2023-01-11T10:18:33.345Z,26.00
2023-01-11T10:18:41.718Z,26.90
2023-01-11T10:19:31.548Z,24.60
2023-01-11T10:20:35.337Z,24.00
2023-01-11T10:21:49.596Z,23.20
2023-01-11T10:23:00.427Z,25.30
2023-01-11T10:24:29.133Z,23.40
2023-01-11T10:25:42.961Z,24.00
2023-01-11T10:26:48.885Z,23.40
2023-01-11T10:28:00.826Z,23.40
2023-01-11T10:29:18.894Z,23.40
2023-01-11T10:30:31.998Z,23.80
2023-01-11T10:31:35.119Z,23.90
2023-01-11T10:33:02.601Z,23.20
2023-01-11T10:34:25.795Z,22.50
2023-01-11T10:35:45.599Z,21.00
2023-01-11T10:37:26.175Z,30.90
2023-01-11T10:38:51.184Z,23.40
2023-01-11T10:40:18.429Z,22.40
2023-01-11T10:41:34.084Z,26.60
2023-01-11T10:43:13.063Z,25.00
2023-01-11T10:44:24.590Z,27.50
2023-01-11T10:45:47.185Z,23.30
2023-01-11T10:46:53.957Z,23.40
2023-01-11T10:48:02.871Z,25.20
2023-01-11T10:49:28.567Z,22.80
2023-01-11T10:50:50.898Z,23.10
2023-01-11T10:51:59.222Z,19.70
2023-01-11T10:53:20.708Z,25.10
2023-01-11T10:54:33.312Z,27.90
2023-01-11T10:55:50.274Z,25.70
2023-01-11T10:58:00.379Z,27.40
2023-01-11T10:59:27.113Z,21.80
2023-01-11T11:00:40.432Z,21.70
2023-01-11T11:01:50.808Z,21.90
2023-01-11T11:03:10.006Z,21.30
2023-01-11T11:04:12.841Z,19.90
2023-01-11T11:05:42.720Z,23.60
2023-01-11T11:07:18.540Z,22.40
2023-01-11T11:08:40.357Z,21.00
2023-01-11T11:09:59.573Z,20.70
2023-01-11T11:11:12.407Z,23.10
2023-01-11T11:12:22.926Z,23.60
2023-01-11T11:13:34.855Z,20.30
2023-01-11T11:15:18.852Z,20.70
2023-01-11T11:16:24.686Z,21.40
2023-01-11T11:17:39.919Z,21.40
2023-01-11T11:18:43.685Z,23.40
2023-01-11T11:19:46.695Z,22.20
2023-01-11T11:20:49.706Z,20.80
2023-01-11T11:21:52.655Z,24.20
2023-01-11T11:22:59.182Z,22.50
2023-01-11T11:24:06.661Z,24.00
2023-01-11T11:25:19.852Z,22.60
2023-01-11T11:26:28.494Z,22.80
2023-01-11T11:27:42.418Z,20.60
2023-01-11T11:29:01.619Z,19.90
2023-01-11T11:30:05.521Z,20.10
2023-01-11T11:31:08.765Z,19.60
2023-01-11T11:32:21.261Z,20.00
2023-01-11T11:33:30.987Z,21.20
2023-01-11T11:35:41.101Z,24.80
2023-01-11T11:36:47.202Z,21.80
2023-01-11T11:37:54.495Z,19.80
2023-01-11T11:39:09.685Z,18.70
2023-01-11T11:40:41.988Z,19.80
2023-01-11T11:41:54.471Z,22.10
2023-01-11T11:43:26.498Z,19.00
2023-01-11T11:44:29.436Z,20.70
2023-01-11T11:45:32.461Z,25.60
2023-01-11T11:46:35.352Z,19.40
2023-01-11T11:47:38.684Z,18.20
2023-01-11T11:48:43.479Z,22.80
2023-01-11T11:49:46.857Z,24.50
2023-01-11T11:50:51.843Z,21.20
2023-01-11T11:51:55.451Z,20.70
2023-01-11T11:53:05.202Z,18.80
2023-01-11T11:55:30.837Z,20.80
2023-01-11T11:56:37.816Z,25.70
2023-01-11T11:57:43.031Z,24.30
2023-01-11T11:58:46.413Z,21.00
2023-01-11T12:00:02.447Z,19.90
2023-01-11T12:01:08.328Z,21.50
2023-01-11T12:02:25.058Z,20.10
2023-01-11T12:03:32.442Z,22.20
2023-01-11T12:04:49.395Z,20.00
2023-01-11T12:06:12.503Z,25.70
2023-01-11T12:07:22.235Z,22.70
2023-01-11T12:09:32.282Z,24.00
2023-01-11T12:10:35.290Z,23.80
2023-01-11T12:11:42.327Z,22.40
2023-01-11T12:12:55.816Z,28.80
2023-01-11T12:14:04.247Z,24.20
2023-01-11T12:15:17.623Z,20.60
2023-01-11T12:16:23.036Z,25.00
2023-01-11T12:17:26.099Z,20.80
2023-01-11T12:18:46.868Z,22.10
2023-01-11T12:19:49.843Z,20.80
2023-01-11T12:20:53.641Z,19.60
2023-01-11T12:22:27.315Z,30.00
2023-01-11T12:23:30.167Z,22.90
2023-01-11T12:24:33.967Z,21.60
2023-01-11T12:26:00.080Z,22.40
2023-01-11T12:28:00.742Z,22.10
2023-01-11T12:29:09.366Z,20.40
2023-01-11T12:30:31.155Z,22.20
2023-01-11T12:32:12.452Z,24.00
2023-01-11T12:33:33.448Z,23.20
2023-01-11T12:35:04.247Z,20.20
2023-01-11T12:36:26.001Z,21.70
2023-01-11T12:37:58.992Z,23.80
2023-01-11T12:39:20.643Z,19.50
2023-01-11T12:40:34.408Z,24.00
2023-01-11T12:42:17.740Z,23.40
2023-01-11T12:43:47.996Z,24.60
2023-01-11T12:45:31.804Z,24.60
2023-01-11T12:46:57.732Z,22.60
2023-01-11T12:48:27.080Z,23.00
2023-01-11T12:50:01.187Z,22.00
2023-01-11T12:51:06.928Z,23.20
2023-01-11T12:52:12.375Z,24.50
2023-01-11T12:53:49.388Z,25.50
2023-01-11T12:55:05.219Z,22.00
2023-01-11T12:56:26.283Z,22.20
2023-01-11T12:58:14.362Z,22.50
2023-01-11T13:00:14.007Z,24.10
2023-01-11T13:01:22.972Z,21.70
2023-01-11T13:03:02.895Z,22.60
2023-01-11T13:04:14.711Z,26.30
2023-01-11T13:05:49.852Z,23.70
2023-01-11T13:07:14.254Z,23.20
2023-01-11T13:08:32.241Z,23.30
2023-01-11T13:09:47.164Z,21.90
2023-01-11T13:11:37.107Z,20.30
2023-01-11T13:12:53.776Z,21.50
2023-01-11T13:14:23.124Z,25.10
2023-01-11T13:15:42.915Z,27.00
2023-01-11T13:17:15.336Z,23.40
2023-01-11T13:18:22.164Z,24.80
2023-01-11T13:19:37.815Z,25.90
2023-01-11T13:21:19.446Z,24.90
2023-01-11T13:22:28.833Z,28.40
2023-01-11T13:23:53.472Z,24.40
2023-01-11T13:24:59.264Z,26.90
2023-01-11T13:26:16.748Z,26.00
2023-01-11T13:27:23.268Z,25.60
2023-01-11T13:28:34.612Z,25.80
2023-01-11T13:29:42.582Z,24.20
2023-01-11T13:30:47.345Z,27.60
2023-01-11T13:31:51.416Z,24.80
2023-01-11T13:32:58.525Z,26.30
2023-01-11T13:34:19.412Z,27.50
2023-01-11T13:35:36.313Z,27.70
2023-01-11T13:36:45.627Z,26.30
2023-01-11T13:38:01.574Z,28.20
2023-01-11T13:39:22.148Z,27.20
2023-01-11T13:40:29.586Z,26.00
2023-01-11T13:41:39.194Z,26.90
2023-01-11T13:42:47.900Z,27.00
2023-01-11T13:44:20.657Z,26.90
2023-01-11T13:45:35.605Z,29.00
2023-01-11T13:47:04.908Z,29.10
2023-01-11T13:48:31.716Z,27.10
2023-01-11T13:50:02.689Z,30.90
2023-01-11T13:51:11.599Z,30.50
2023-01-11T13:52:17.799Z,28.50
2023-01-11T13:53:44.871Z,26.50
2023-01-11T13:55:33.108Z,27.50
2023-01-11T13:56:41.590Z,28.10
2023-01-11T13:58:20.503Z,28.90
2023-01-11T13:59:33.041Z,24.60
2023-01-11T14:00:45.882Z,29.30
2023-01-11T14:01:58.249Z,23.80
2023-01-11T14:03:20.762Z,27.40
2023-01-11T14:04:53.599Z,27.50
2023-01-11T14:05:59.463Z,30.70
2023-01-11T14:07:17.297Z,31.00
2023-01-11T14:08:57.741Z,29.80
2023-01-11T14:10:32.925Z,30.80
2023-01-11T14:11:52.503Z,29.10
2023-01-11T14:13:14.075Z,29.00
2023-01-11T14:14:33.137Z,27.40
2023-01-11T14:15:48.993Z,27.40
2023-01-11T14:17:04.135Z,29.00
2023-01-11T14:18:45.394Z,26.30
2023-01-11T14:20:00.045Z,26.50
2023-01-11T14:21:34.148Z,30.90
2023-01-11T14:23:02.455Z,30.30
2023-01-11T14:24:07.735Z,27.80
2023-01-11T14:25:22.517Z,29.10
2023-01-11T14:26:56.161Z,25.70
2023-01-11T14:28:14.113Z,25.70
2023-01-11T14:29:44.812Z,30.90
2023-01-11T14:31:24.406Z,26.20
2023-01-11T14:32:49.939Z,27.20
2023-01-11T14:34:01.617Z,31.10
2023-01-11T14:35:33.627Z,31.70
2023-01-11T14:37:00.639Z,27.90
2023-01-11T14:38:27.933Z,31.40
2023-01-11T14:39:52.260Z,30.10
2023-01-11T14:41:16.286Z,31.60
2023-01-11T14:42:31.302Z,27.00
2023-01-11T14:43:56.649Z,30.90
2023-01-11T14:45:40.796Z,32.20
2023-01-11T14:47:14.631Z,30.20
2023-01-11T14:48:29.359Z,30.90
2023-01-11T14:49:58.253Z,29.60
2023-01-11T14:51:18.695Z,33.00
2023-01-11T14:52:38.490Z,29.20
2023-01-11T14:53:50.467Z,31.50
2023-01-11T14:54:56.898Z,33.30
2023-01-11T14:56:00.134Z,31.30
2023-01-11T14:57:03.091Z,30.30
2023-01-11T14:58:27.613Z,28.90
2023-01-11T14:59:30.493Z,27.10
2023-01-11T15:00:34.342Z,30.10
2023-01-11T15:02:06.409Z,32.00
2023-01-11T15:03:09.316Z,30.90
2023-01-11T15:04:22.509Z,29.50
2023-01-11T15:05:33.957Z,29.70
2023-01-11T15:06:53.658Z,30.20
2023-01-11T15:09:44.496Z,33.10
2023-01-11T15:10:51.585Z,31.60
2023-01-11T15:11:54.626Z,29.40
2023-01-11T15:12:58.780Z,31.10
2023-01-11T15:14:05.660Z,27.10